Time;durP1;ratioP1;P1;durP2;ratioP2;P2;SDS_P1;SDS_P2;PMS_P1;PMS_P2;Temp;Humidity;BMP_temperature;BMP_pressure;BME280_temperature;BME280_humidity;BME280_pressure;Samples;Min_cycle;Max_cycle;Signal;HPM_P1;HPM_P2
2022/02/22 00:00:10;;;;;;;;;8.75;8.75;;;;;4.43;89.77;100657.59;4960407;28;11570;-73
2022/02/22 00:03:05;;;;;;;;;11.00;10.50;;;;;4.47;89.64;100660.56;4960073;28;11553;-73
2022/02/22 00:05:33;;;;;;;;;13.00;13.00;;;;;4.40;90.31;100658.19;4931896;28;11586;-74
2022/02/22 00:08:29;;;;;;;;;9.75;9.75;;;;;4.46;90.13;100656.19;4949219;29;11645;-73
2022/02/22 00:11:25;;;;;;;;;9.25;9.25;;;;;4.34;90.59;100656.59;4941154;29;11515;-73
2022/02/22 00:14:21;;;;;;;;;16.00;14.25;;;;;4.32;91.24;100652.53;4940695;29;11539;-73
2022/02/22 00:17:16;;;;;;;;;11.00;11.00;;;;;4.29;91.06;100642.13;4971325;28;11572;-73
2022/02/22 00:20:13;;;;;;;;;15.50;15.50;;;;;4.34;90.96;100644.81;4956866;28;12566;-72
2022/02/22 00:23:09;;;;;;;;;1.50;1.50;;;;;4.32;91.39;100652.53;4929314;28;11601;-73
2022/02/22 00:26:05;;;;;;;;;3.00;3.00;;;;;4.31;91.36;100650.91;4966202;28;11644;-73
2022/02/22 00:29:00;;;;;;;;;13.50;12.00;;;;;4.42;90.99;100639.53;4966192;28;11545;-73
2022/02/22 00:31:56;;;;;;;;;13.50;12.75;;;;;4.39;91.30;100659.28;4979157;28;11612;-73
2022/02/22 00:34:51;;;;;;;;;11.50;11.50;;;;;4.33;91.53;100654.97;4940899;29;11555;-72
2022/02/22 00:37:48;;;;;;;;;12.00;12.00;;;;;4.31;91.46;100646.22;4979472;28;11592;-72
2022/02/22 00:40:44;;;;;;;;;11.00;10.50;;;;;4.25;92.03;100652.84;4951063;28;11279;-73
2022/02/22 00:43:39;;;;;;;;;8.00;5.75;;;;;4.21;92.55;100654.53;4952011;28;11546;-73
2022/02/22 00:46:43;;;;;;;;;11.00;11.00;;;;;4.16;92.48;100655.41;4955056;28;11542;-73
2022/02/22 00:49:39;;;;;;;;;11.50;10.25;;;;;4.25;91.96;100654.78;4979268;28;11552;-73
2022/02/22 00:52:35;;;;;;;;;8.75;8.75;;;;;4.15;92.11;100647.50;4937834;29;11524;-75
2022/02/22 00:55:32;;;;;;;;;14.75;14.75;;;;;4.09;92.93;100645.91;4927434;28;11551;-73
2022/02/22 00:58:27;;;;;;;;;10.50;9.50;;;;;4.07;93.20;100646.19;4956491;28;11566;-73
2022/02/22 01:01:23;;;;;;;;;12.00;12.00;;;;;4.13;93.18;100645.03;4956581;28;11550;-74
2022/02/22 01:04:19;;;;;;;;;11.00;11.00;;;;;4.17;92.94;100634.31;4956433;28;11020;-74
2022/02/22 01:07:20;;;;;;;;;8.25;8.25;;;;;4.22;92.73;100631.56;4941878;28;11564;-73
2022/02/22 01:10:09;;;;;;;;;10.00;10.00;;;;;4.18;92.88;100636.78;4941394;28;11103;-73
2022/02/22 01:13:04;;;;;;;;;9.25;9.25;;;;;4.16;93.06;100625.31;4956296;28;11566;-73
2022/02/22 01:16:00;;;;;;;;;10.25;10.25;;;;;4.16;93.11;100625.31;4942510;28;11707;-73
2022/02/22 01:18:56;;;;;;;;;10.25;9.00;;;;;4.17;93.14;100615.97;4943521;28;11566;-73
2022/02/22 01:21:51;;;;;;;;;12.00;10.25;;;;;4.12;93.98;100615.22;4936763;29;11676;-73
2022/02/22 01:24:47;;;;;;;;;12.50;12.50;;;;;4.06;94.55;100611.69;4923873;29;12385;-73
2022/02/22 01:27:43;;;;;;;;;13.25;13.25;;;;;4.12;94.97;100613.28;4937184;29;12274;-73
2022/02/22 01:30:38;;;;;;;;;10.25;10.25;;;;;4.10;95.19;100601.00;4955135;28;11682;-72
2022/02/22 01:33:34;;;;;;;;;11.25;10.25;;;;;4.07;95.63;100602.41;4955949;28;11591;-72
2022/02/22 01:36:29;;;;;;;;;11.50;11.50;;;;;4.10;95.73;100607.28;4950984;28;11572;-73
2022/02/22 01:39:25;;;;;;;;;10.25;10.25;;;;;4.08;95.65;100615.00;4955605;28;12288;-72
2022/02/22 01:41:53;;;;;;;;;16.25;14.00;;;;;4.01;96.24;100630.13;4955365;28;11572;-72
2022/02/22 01:44:48;;;;;;;;;16.00;16.00;;;;;4.07;96.34;100623.50;4955907;28;11675;-72
2022/02/22 01:47:24;;;;;;;;;12.75;12.75;;;;;4.08;96.02;100615.00;4959412;28;11605;-73
2022/02/22 01:50:20;;;;;;;;;16.50;16.50;;;;;4.01;96.54;100619.97;4942610;28;12393;-72
2022/02/22 01:53:10;;;;;;;;;13.00;13.00;;;;;4.09;96.57;100618.53;4945889;29;11683;-73
2022/02/22 01:55:39;;;;;;;;;15.75;13.00;;;;;4.06;96.38;100616.34;4937231;29;11712;-73
2022/02/22 01:58:35;;;;;;;;;17.75;16.25;;;;;4.13;96.53;100620.38;4936603;29;11565;-73
2022/02/22 02:01:32;;;;;;;;;16.75;16.75;;;;;4.00;96.73;100625.75;4948586;28;11557;-74
2022/02/22 02:04:30;;;;;;;;;18.50;18.50;;;;;4.04;96.89;100624.06;4954218;28;11586;-74
2022/02/22 02:07:26;;;;;;;;;15.50;14.00;;;;;3.96;97.45;100630.16;4970769;28;11793;-73
2022/02/22 02:10:22;;;;;;;;;18.75;18.75;;;;;3.92;97.84;100618.16;4961794;28;11549;-73
2022/02/22 02:13:17;;;;;;;;;15.75;14.50;;;;;3.85;98.80;100626.72;4974622;28;11611;-73
2022/02/22 02:16:13;;;;;;;;;22.75;22.75;;;;;3.90;98.81;100627.47;4948459;28;11597;-73
2022/02/22 02:19:13;;;;;;;;;14.75;14.75;;;;;3.88;99.38;100632.41;4955181;28;11608;-73
2022/02/22 02:21:41;;;;;;;;;17.50;17.50;;;;;3.84;98.96;100630.56;4938926;28;11588;-73
2022/02/22 02:24:40;;;;;;;;;21.75;19.50;;;;;3.88;99.06;100635.16;4953551;28;11620;-73
2022/02/22 02:27:36;;;;;;;;;18.75;18.00;;;;;3.90;98.82;100640.31;4967399;28;11678;-73
2022/02/22 02:30:31;;;;;;;;;18.00;17.25;;;;;3.90;99.68;100634.84;4970116;28;11567;-73
2022/02/22 02:32:59;;;;;;;;;19.50;17.50;;;;;3.82;99.82;100633.53;4975453;28;11592;-72
2022/02/22 02:35:55;;;;;;;;;19.75;19.50;;;;;3.77;99.76;100632.81;4932692;28;11639;-74
2022/02/22 02:38:51;;;;;;;;;17.50;17.50;;;;;3.76;100.00;100642.94;4954507;28;11557;-73
2022/02/22 02:41:47;;;;;;;;;12.25;12.25;;;;;3.74;100.00;100638.81;4954757;28;11590;-73
2022/02/22 02:44:44;;;;;;;;;6.25;6.25;;;;;3.69;100.00;100636.97;4941841;28;11606;-73
2022/02/22 02:47:40;;;;;;;;;18.00;17.75;;;;;3.78;100.00;100639.91;4947755;28;11501;-73
2022/02/22 02:50:36;;;;;;;;;17.75;16.00;;;;;3.76;100.00;100636.66;4954291;28;11649;-73
2022/02/22 02:53:31;;;;;;;;;13.50;13.50;;;;;3.93;100.00;100636.22;4954539;28;11650;-73
2022/02/22 02:56:27;;;;;;;;;16.50;16.50;;;;;3.87;100.00;100624.50;4945376;29;11652;-74
2022/02/22 02:59:23;;;;;;;;;19.75;19.00;;;;;3.86;100.00;100620.13;4966993;28;11715;-74
2022/02/22 03:02:21;;;;;;;;;15.75;15.75;;;;;3.83;100.00;100621.53;4960876;28;11562;-73
2022/02/22 03:04:59;;;;;;;;;30.75;30.00;;;;;3.90;100.00;100629.38;4972792;28;12374;-73
2022/02/22 03:07:58;;;;;;;;;22.00;21.50;;;;;3.86;100.00;100622.88;4929929;28;12289;-73
2022/02/22 03:10:54;;;;;;;;;18.00;18.00;;;;;3.86;100.00;100625.59;4935052;29;11596;-74
2022/02/22 03:13:50;;;;;;;;;11.25;11.25;;;;;3.85;100.00;100623.97;4922479;28;12448;-73
2022/02/22 03:16:34;;;;;;;;;26.00;24.25;;;;;3.78;100.00;100623.47;4917716;28;11584;-75
2022/02/22 03:19:30;;;;;;;;;21.00;17.50;;;;;3.82;100.00;100624.53;4941307;28;11608;-75
2022/02/22 03:22:25;;;;;;;;;26.00;22.75;;;;;3.82;100.00;100622.59;4953789;28;11584;-73
2022/02/22 03:25:21;;;;;;;;;17.75;17.75;;;;;3.90;100.00;100621.16;4944806;28;11618;-75
2022/02/22 03:28:18;;;;;;;;;15.25;15.25;;;;;3.94;100.00;100614.03;4934939;29;11693;-75
2022/02/22 03:31:14;;;;;;;;;17.00;17.00;;;;;3.88;100.00;100626.94;4934858;29;11758;-74
2022/02/22 03:34:10;;;;;;;;;16.75;16.25;;;;;3.83;100.00;100627.00;4934704;28;11600;-74
2022/02/22 03:37:05;;;;;;;;;16.75;15.00;;;;;3.93;100.00;100628.81;4948789;28;11598;-74
2022/02/22 03:40:01;;;;;;;;;18.00;16.25;;;;;3.89;100.00;100628.56;4973222;28;11576;-75
2022/02/22 03:42:58;;;;;;;;;20.00;19.25;;;;;4.00;100.00;100629.31;4934777;29;11670;-73
2022/02/22 03:45:53;;;;;;;;;17.25;17.25;;;;;3.97;100.00;100618.91;4937273;28;11611;-74
2022/02/22 03:48:49;;;;;;;;;24.25;24.00;;;;;3.94;100.00;100621.44;4922089;29;11619;-74
2022/02/22 03:51:45;;;;;;;;;25.75;23.50;;;;;3.73;100.00;100607.91;4934947;29;11759;-73
2022/02/22 03:54:40;;;;;;;;;16.75;16.75;;;;;3.86;100.00;100612.72;4934727;29;11607;-74
2022/02/22 03:57:37;;;;;;;;;41.25;23.75;;;;;3.83;100.00;100607.84;4935827;29;11710;-75
2022/02/22 04:00:32;;;;;;;;;21.25;17.75;;;;;3.84;100.00;100603.19;4934690;29;11619;-74
2022/02/22 04:03:28;;;;;;;;;21.00;20.00;;;;;3.81;100.00;100610.03;4934786;29;12481;-74
2022/02/22 04:06:24;;;;;;;;;18.25;17.25;;;;;3.86;100.00;100592.78;4957385;28;11561;-74
2022/02/22 04:09:19;;;;;;;;;17.00;17.00;;;;;3.77;100.00;100603.53;4959804;28;11632;-74
2022/02/22 04:12:17;;;;;;;;;21.00;18.50;;;;;3.83;100.00;100607.00;4973459;28;11548;-75
2022/02/22 04:15:13;;;;;;;;;19.75;19.75;;;;;3.94;100.00;100614.03;4972949;28;11529;-74
2022/02/22 04:18:09;;;;;;;;;19.25;18.25;;;;;4.00;100.00;100609.34;4941381;28;11549;-75
2022/02/22 04:21:05;;;;;;;;;16.75;16.75;;;;;3.92;100.00;100615.44;4925367;29;11566;-73
2022/02/22 04:24:01;;;;;;;;;17.25;17.25;;;;;4.05;100.00;100614.72;4953769;29;11570;-73
2022/02/22 04:26:57;;;;;;;;;14.00;14.00;;;;;4.15;100.00;100618.19;4954081;28;12297;-75
2022/02/22 04:29:53;;;;;;;;;23.00;23.00;;;;;4.17;100.00;100607.78;4957228;28;11572;-74
2022/02/22 04:32:49;;;;;;;;;21.00;21.00;;;;;4.24;100.00;100606.63;4956937;28;11573;-73
2022/02/22 04:35:16;;;;;;;;;20.00;20.00;;;;;4.33;100.00;100605.69;4958364;28;11587;-74
2022/02/22 04:37:58;;;;;;;;;14.25;14.25;;;;;4.32;100.00;100605.97;4957628;28;11661;-74
2022/02/22 04:40:54;;;;;;;;;22.00;20.50;;;;;4.37;100.00;100606.75;4961695;28;11527;-75
2022/02/22 04:43:50;;;;;;;;;22.00;20.75;;;;;4.35;100.00;100597.97;4944318;28;11669;-77
2022/02/22 04:46:47;;;;;;;;;38.75;24.00;;;;;4.40;100.00;100606.16;4956356;28;12299;-75
2022/02/22 04:49:45;;;;;;;;;31.75;23.75;;;;;4.51;100.00;100597.81;4957064;28;11600;-74
2022/02/22 04:52:41;;;;;;;;;24.00;23.50;;;;;4.57;100.00;100616.63;4943735;28;11583;-74
2022/02/22 04:55:37;;;;;;;;;29.50;20.50;;;;;4.65;100.00;100612.41;4956536;28;11569;-74
2022/02/22 04:58:32;;;;;;;;;21.25;20.00;;;;;4.63;100.00;100611.91;4925722;29;11526;-76
2022/02/22 05:01:28;;;;;;;;;19.75;18.50;;;;;4.72;100.00;100613.69;4939578;28;11650;-74
2022/02/22 05:04:24;;;;;;;;;21.75;21.75;;;;;4.76;100.00;100611.19;4956418;28;11587;-75
2022/02/22 05:07:19;;;;;;;;;19.25;19.25;;;;;4.81;100.00;100621.25;4955868;28;11572;-75
2022/02/22 05:10:15;;;;;;;;;20.00;20.00;;;;;4.76;100.00;100610.38;4954599;28;11619;-74
2022/02/22 05:13:10;;;;;;;;;20.00;20.00;;;;;4.78;100.00;100616.38;4975071;28;11510;-75
2022/02/22 05:16:07;;;;;;;;;21.25;20.50;;;;;4.69;100.00;100629.91;4975662;28;11531;-74
2022/02/22 05:18:34;;;;;;;;;25.75;24.50;;;;;4.84;100.00;100618.75;4976901;28;11615;-75
2022/02/22 05:21:30;;;;;;;;;26.00;26.00;;;;;5.01;100.00;100610.03;4975807;28;12306;-74
2022/02/22 05:24:25;;;;;;;;;18.00;18.00;;;;;5.00;100.00;100614.69;4975562;28;11542;-74
2022/02/22 05:27:21;;;;;;;;;23.25;22.75;;;;;5.02;100.00;100617.94;4975720;28;11557;-75
2022/02/22 05:30:17;;;;;;;;;28.25;27.50;;;;;5.07;100.00;100629.97;4963558;28;11696;-76
2022/02/22 05:32:50;;;;;;;;;25.50;24.25;;;;;5.08;100.00;100624.19;4938165;29;11612;-76
2022/02/22 05:35:50;;;;;;;;;21.25;21.25;;;;;4.98;100.00;100622.41;4924033;29;11597;-75
2022/02/22 05:38:20;;;;;;;;;17.25;16.75;;;;;4.96;100.00;100632.81;4951664;28;12376;-75
2022/02/22 05:41:01;;;;;;;;;22.75;21.75;;;;;4.78;100.00;100633.63;4958701;28;11803;-75
2022/02/22 05:43:29;;;;;;;;;17.50;17.50;;;;;4.79;100.00;100640.75;4957479;28;11663;-75
2022/02/22 05:45:56;;;;;;;;;52.75;44.00;;;;;4.89;100.00;100639.78;4956122;28;11115;-75
2022/02/22 05:48:24;;;;;;;;;23.25;23.25;;;;;4.94;100.00;100640.53;4956505;28;11652;-75
2022/02/22 05:50:51;;;;;;;;;23.00;22.00;;;;;4.89;100.00;100648.81;4940086;28;11586;-74
2022/02/22 05:53:48;;;;;;;;;26.50;20.50;;;;;4.93;100.00;100657.28;4954270;28;11607;-74
2022/02/22 05:56:44;;;;;;;;;18.75;17.75;;;;;4.96;100.00;100656.69;4961714;28;11575;-74
2022/02/22 05:59:39;;;;;;;;;14.25;13.75;;;;;4.90;100.00;100649.63;4959899;28;11575;-74
2022/02/22 06:02:07;;;;;;;;;16.75;16.00;;;;;4.98;100.00;100654.47;4957002;28;11543;-76
2022/02/22 06:04:57;;;;;;;;;26.75;26.75;;;;;4.96;100.00;100656.69;4956464;28;11652;-75
2022/02/22 06:07:53;;;;;;;;;20.00;19.50;;;;;4.95;100.00;100655.06;4944619;29;11588;-75
2022/02/22 06:10:49;;;;;;;;;23.25;23.25;;;;;5.12;100.00;100655.38;4936324;29;11697;-75
2022/02/22 06:13:44;;;;;;;;;22.25;19.00;;;;;5.14;100.00;100653.16;4953232;28;11675;-75
2022/02/22 06:16:40;;;;;;;;;28.50;26.50;;;;;5.21;100.00;100659.09;4936912;29;11568;-75
2022/02/22 06:19:36;;;;;;;;;25.00;22.50;;;;;5.08;100.00;100653.53;4935653;29;11637;-75
2022/02/22 06:22:13;;;;;;;;;26.25;24.25;;;;;5.17;100.00;100658.03;4948111;28;11698;-74
2022/02/22 06:24:55;;;;;;;;;29.25;28.75;;;;;5.14;100.00;100658.66;4962014;28;11578;-75
2022/02/22 06:27:52;;;;;;;;;22.50;21.25;;;;;5.22;100.00;100657.19;4946185;28;11534;-75
2022/02/22 06:30:48;;;;;;;;;25.25;25.25;;;;;5.17;100.00;100654.50;4956132;28;11671;-76
2022/02/22 06:33:44;;;;;;;;;21.75;21.25;;;;;5.21;100.00;100663.75;4973556;28;11597;-75
2022/02/22 06:36:11;;;;;;;;;28.50;28.50;;;;;5.15;100.00;100649.31;4952840;28;11597;-76
2022/02/22 06:38:39;;;;;;;;;25.25;25.25;;;;;5.19;100.00;100655.00;4963778;28;11567;-75
2022/02/22 06:41:06;;;;;;;;;26.00;25.75;;;;;5.28;100.00;100653.22;4957922;28;11598;-76
2022/02/22 06:43:34;;;;;;;;;31.25;29.25;;;;;5.26;100.00;100652.72;4969488;28;11570;-75
2022/02/22 06:46:30;;;;;;;;;30.50;29.50;;;;;5.34;100.00;100651.22;4953297;28;12294;-76
2022/02/22 06:49:25;;;;;;;;;32.25;32.25;;;;;5.41;100.00;100648.94;4946204;28;11527;-76
2022/02/22 06:52:22;;;;;;;;;34.00;32.00;;;;;5.40;100.00;100653.59;4956944;28;12388;-75
2022/02/22 06:55:18;;;;;;;;;27.75;27.50;;;;;5.42;100.00;100650.56;4954660;28;11518;-73
2022/02/22 06:58:09;;;;;;;;;34.75;33.50;;;;;5.49;100.00;100642.78;4961548;28;11600;-75
2022/02/22 07:01:04;;;;;;;;;27.25;27.00;;;;;5.65;100.00;100657.06;4961061;28;12361;-75
2022/02/22 07:04:00;;;;;;;;;29.25;29.00;;;;;5.61;100.00;100656.03;4957928;28;11066;-75
2022/02/22 07:06:27;;;;;;;;;27.50;26.25;;;;;5.73;100.00;100657.19;4954459;28;11511;-75
2022/02/22 07:08:55;;;;;;;;;27.25;27.00;;;;;5.61;100.00;100661.53;4937948;28;11597;-76
2022/02/22 07:11:50;;;;;;;;;21.50;21.25;;;;;5.64;100.00;100661.75;4954164;28;11634;-75
2022/02/22 07:14:46;;;;;;;;;36.75;33.25;;;;;5.80;100.00;100662.31;4953706;28;11586;-73
2022/02/22 07:17:14;;;;;;;;;28.25;28.25;;;;;5.75;100.00;100663.22;4955200;28;11658;-73
2022/02/22 07:19:42;;;;;;;;;34.00;32.75;;;;;5.91;100.00;100658.31;4937845;28;11586;-73
2022/02/22 07:22:10;;;;;;;;;30.50;30.50;;;;;5.96;100.00;100657.41;4954855;28;11724;-74
2022/02/22 07:25:09;;;;;;;;;26.00;23.75;;;;;6.11;99.76;100652.47;4961500;28;11530;-73
2022/02/22 07:28:05;;;;;;;;;26.50;24.75;;;;;6.30;99.09;100654.34;4973147;28;11552;-74
2022/02/22 07:31:01;;;;;;;;;33.25;28.00;;;;;6.57;97.64;100659.03;4973175;28;11517;-74
2022/02/22 07:33:56;;;;;;;;;25.75;25.75;;;;;6.65;95.82;100656.38;4972970;28;11625;-74
2022/02/22 07:36:52;;;;;;;;;28.25;24.75;;;;;6.60;95.11;100652.94;4973030;28;11536;-75
2022/02/22 07:39:47;;;;;;;;;35.00;29.00;;;;;6.78;95.03;100651.19;4973063;28;11530;-73
2022/02/22 07:42:44;;;;;;;;;24.00;24.00;;;;;6.81;94.05;100658.81;4972567;28;11576;-74
2022/02/22 07:45:39;;;;;;;;;24.75;24.75;;;;;6.95;94.22;100645.88;4972487;28;12328;-75
2022/02/22 07:48:07;;;;;;;;;27.00;24.25;;;;;7.28;92.78;100653.97;4972947;28;11623;-74
2022/02/22 07:50:38;;;;;;;;;29.25;28.00;;;;;7.53;92.24;100656.16;4973772;28;12300;-75
2022/02/22 07:53:06;;;;;;;;;29.75;29.50;;;;;7.64;91.14;100656.72;4954271;28;11632;-74
2022/02/22 07:56:04;;;;;;;;;25.25;25.25;;;;;7.85;89.57;100651.53;4961252;28;11560;-75
2022/02/22 07:59:00;;;;;;;;;26.25;26.25;;;;;7.97;88.67;100660.03;4953626;28;11557;-75
2022/02/22 08:01:55;;;;;;;;;23.50;22.75;;;;;8.03;87.47;100654.06;4942936;28;11541;-75
2022/02/22 08:04:51;;;;;;;;;32.00;31.50;;;;;8.03;87.94;100648.56;4944393;28;11480;-74
2022/02/22 08:07:47;;;;;;;;;31.50;29.75;;;;;8.37;86.52;100651.88;4944432;28;12313;-76
2022/02/22 08:10:43;;;;;;;;;24.50;24.50;;;;;8.27;85.70;100653.72;4957850;28;11510;-75
2022/02/22 08:13:11;;;;;;;;;27.75;25.50;;;;;8.29;84.77;100664.44;4958262;28;11572;-75
2022/02/22 08:16:06;;;;;;;;;35.75;34.25;;;;;8.70;83.43;100663.34;4944370;28;11657;-71
2022/02/22 08:19:02;;;;;;;;;36.75;35.75;;;;;8.85;81.83;100657.41;4944573;28;11491;-72
2022/02/22 08:21:58;;;;;;;;;27.50;27.50;;;;;8.82;81.92;100663.56;4930319;29;11493;-72
2022/02/22 08:24:53;;;;;;;;;23.75;23.75;;;;;8.88;81.43;100667.78;4906112;29;11484;-71
2022/02/22 08:27:49;;;;;;;;;21.25;21.00;;;;;8.56;81.29;100668.97;4936946;28;11564;-72
2022/02/22 08:30:44;;;;;;;;;28.00;26.00;;;;;8.86;80.69;100670.06;4933140;28;11583;-74
2022/02/22 08:33:40;;;;;;;;;24.00;22.50;;;;;8.93;80.06;100680.63;4927194;28;11484;-72
2022/02/22 08:36:36;;;;;;;;;12.00;12.00;;;;;9.02;79.24;100678.69;4944111;28;11476;-73
2022/02/22 08:39:04;;;;;;;;;16.75;16.75;;;;;8.99;79.31;100669.13;4957679;28;11503;-71
2022/02/22 08:41:37;;;;;;;;;17.75;17.75;;;;;9.04;79.34;100666.22;4940989;28;11478;-72
2022/02/22 08:44:05;;;;;;;;;27.25;27.25;;;;;9.14;79.55;100668.69;4940579;28;11472;-72
2022/02/22 08:47:01;;;;;;;;;23.50;23.00;;;;;9.17;78.87;100670.78;4944025;28;12281;-72
2022/02/22 08:49:56;;;;;;;;;24.50;22.50;;;;;9.12;78.58;100659.94;4952950;28;11645;-72
2022/02/22 08:52:52;;;;;;;;;22.00;21.25;;;;;9.15;78.86;100664.78;4912769;28;11658;-72
2022/02/22 08:55:48;;;;;;;;;29.75;22.75;;;;;9.10;78.79;100662.16;4956184;28;11469;-72
2022/02/22 08:58:44;;;;;;;;;30.25;29.50;;;;;9.05;78.98;100656.81;4947960;28;11520;-74
2022/02/22 09:01:40;;;;;;;;;29.50;28.50;;;;;9.32;77.92;100663.19;4896864;29;11515;-71
2022/02/22 09:04:35;;;;;;;;;21.75;19.25;;;;;9.29;78.16;100655.56;4884791;29;11510;-71
2022/02/22 09:07:31;;;;;;;;;28.75;26.75;;;;;9.28;77.54;100653.91;4904023;29;11248;-70
2022/02/22 09:10:27;;;;;;;;;19.50;19.00;;;;;9.39;77.91;100655.22;4908942;29;12274;-73
2022/02/22 09:13:22;;;;;;;;;25.00;24.00;;;;;9.53;77.26;100664.19;4915715;29;11535;-73
2022/02/22 09:16:18;;;;;;;;;23.50;23.50;;;;;9.41;77.31;100666.75;4916597;29;11642;-71
2022/02/22 09:19:14;;;;;;;;;22.50;22.50;;;;;9.34;77.71;100664.47;4915027;29;11553;-75
2022/02/22 09:22:10;;;;;;;;;21.25;21.25;;;;;9.31;77.80;100665.13;4885971;29;11585;-73
2022/02/22 09:25:08;;;;;;;;;17.75;17.75;;;;;9.29;78.17;100667.41;4915390;29;11093;-71
2022/02/22 09:28:06;;;;;;;;;25.75;25.75;;;;;8.95;79.34;100665.38;4902316;29;11752;-73
2022/02/22 09:31:02;;;;;;;;;23.50;23.25;;;;;9.02;79.87;100659.41;4884996;29;12062;-71
2022/02/22 09:33:58;;;;;;;;;22.50;21.00;;;;;9.07;79.60;100660.06;4955518;28;11513;-71
2022/02/22 09:36:53;;;;;;;;;22.75;22.75;;;;;8.84;80.28;100664.88;4947923;28;11555;-73
2022/02/22 09:39:49;;;;;;;;;22.00;22.00;;;;;8.95;80.13;100668.13;4924619;29;12439;-73
2022/02/22 09:42:45;;;;;;;;;22.50;22.00;;;;;8.91;80.38;100665.22;4936372;29;11543;-73
2022/02/22 09:45:41;;;;;;;;;22.00;22.00;;;;;8.75;81.56;100660.47;4947813;28;11555;-73
2022/02/22 09:48:37;;;;;;;;;23.00;22.25;;;;;8.68;81.79;100649.91;4948340;28;11508;-72
2022/02/22 09:51:33;;;;;;;;;21.00;21.00;;;;;8.70;82.28;100660.59;4956747;28;11521;-73
2022/02/22 09:54:29;;;;;;;;;22.50;22.25;;;;;8.74;82.04;100656.91;4958925;28;11658;-73
2022/02/22 09:57:24;;;;;;;;;26.00;26.00;;;;;9.04;81.42;100665.41;4955401;28;11545;-72
2022/02/22 10:00:26;;;;;;;;;30.75;29.25;;;;;9.14;80.88;100665.13;4942612;28;11631;-72
2022/02/22 10:03:22;;;;;;;;;24.25;23.00;;;;;9.37;79.44;100655.56;4955694;28;11559;-72
2022/02/22 10:06:22;;;;;;;;;20.00;20.00;;;;;9.47;78.88;100646.16;4961497;28;12324;-73
2022/02/22 10:09:19;;;;;;;;;28.00;27.50;;;;;9.62;77.41;100650.38;4972387;28;11191;-73
2022/02/22 10:12:27;;;;;;;;;24.50;22.00;;;;;9.67;76.69;100647.47;4953980;28;11197;-73
2022/02/22 10:15:22;;;;;;;;;27.25;27.25;;;;;9.30;77.61;100655.22;4961316;28;11039;-72
2022/02/22 10:18:18;;;;;;;;;17.00;17.00;;;;;9.36;77.97;100639.34;4961355;28;11505;-72
2022/02/22 10:21:13;;;;;;;;;25.00;24.75;;;;;9.24;78.51;100642.72;4935625;29;12374;-72
2022/02/22 10:24:11;;;;;;;;;26.75;26.75;;;;;9.14;79.01;100637.53;4946080;28;11523;-75
2022/02/22 10:27:08;;;;;;;;;25.00;25.00;;;;;9.22;79.13;100622.91;4938828;28;11544;-74
2022/02/22 10:30:04;;;;;;;;;26.25;25.00;;;;;9.26;79.43;100618.38;4969577;28;11509;-73
2022/02/22 10:33:00;;;;;;;;;32.75;25.25;;;;;9.27;79.71;100617.22;4950359;28;11563;-73
2022/02/22 10:36:06;;;;;;;;;33.75;31.75;;;;;9.31;80.28;100612.69;4935570;29;11572;-72
2022/02/22 10:39:04;;;;;;;;;29.50;29.50;;;;;9.35;81.00;100612.84;4947017;28;11563;-75
2022/02/22 10:42:00;;;;;;;;;33.25;32.75;;;;;9.24;83.10;100611.56;4958161;28;11657;-73
2022/02/22 10:44:55;;;;;;;;;34.50;30.75;;;;;9.06;84.03;100610.72;4950282;28;11596;-72
2022/02/22 10:47:55;;;;;;;;;38.00;34.00;;;;;9.23;83.77;100613.50;4925811;29;11631;-73
2022/02/22 10:50:52;;;;;;;;;39.00;37.00;;;;;9.33;83.26;100607.66;4933187;28;11503;-73
2022/02/22 10:53:49;;;;;;;;;39.00;35.75;;;;;9.48;82.93;100617.41;4963669;28;11460;-73
2022/02/22 10:56:45;;;;;;;;;35.25;33.25;;;;;9.31;84.39;100611.88;4934098;29;11557;-71
2022/02/22 10:59:41;;;;;;;;;36.25;35.75;;;;;9.48;82.87;100611.88;4967523;28;11461;-72
2022/02/22 11:02:37;;;;;;;;;30.75;30.75;;;;;9.53;82.86;100610.91;4966094;28;12284;-73
2022/02/22 11:05:34;;;;;;;;;32.75;32.75;;;;;9.31;84.12;100598.91;4962780;28;11484;-71
2022/02/22 11:08:31;;;;;;;;;38.50;33.50;;;;;9.52;83.62;100598.25;4942799;28;12434;-74
2022/02/22 11:11:05;;;;;;;;;29.00;29.00;;;;;9.47;83.31;100590.94;4974275;28;11541;-74
2022/02/22 11:14:08;;;;;;;;;34.75;31.00;;;;;9.56;83.37;100597.25;4950699;28;11585;-75
2022/02/22 11:17:22;;;;;;;;;29.25;29.25;;;;;9.42;85.83;100583.63;4922232;29;11714;-74
2022/02/22 11:20:29;;;;;;;;;23.75;22.75;;;;;9.26;86.95;100579.72;4944837;28;11596;-75
2022/02/22 11:23:28;;;;;;;;;31.50;31.00;;;;;9.26;85.63;100563.19;4952146;28;11560;-74
2022/02/22 11:26:24;;;;;;;;;38.50;36.75;;;;;9.30;86.57;100572.44;4934570;29;11575;-73
2022/02/22 11:29:22;;;;;;;;;34.50;33.75;;;;;9.31;87.62;100576.81;4934046;29;11542;-74
2022/02/22 11:32:21;;;;;;;;;32.25;32.25;;;;;9.22;88.25;100573.25;4951971;28;11575;-74
2022/02/22 11:35:18;;;;;;;;;34.75;33.25;;;;;9.37;87.91;100586.56;4943695;28;11575;-74
2022/02/22 11:38:14;;;;;;;;;34.50;34.50;;;;;9.38;87.98;100582.66;4952587;28;11636;-74
2022/02/22 11:41:16;;;;;;;;;32.75;32.00;;;;;9.34;88.54;100589.16;4938188;28;11529;-73
2022/02/22 11:44:18;;;;;;;;;30.25;30.25;;;;;9.33;88.63;100591.09;4952947;28;11629;-73
2022/02/22 11:47:15;;;;;;;;;35.25;34.00;;;;;9.35;88.26;100597.09;4923254;29;11556;-74
2022/02/22 11:50:17;;;;;;;;;25.50;25.50;;;;;9.23;88.62;100591.44;4938831;29;11554;-74
2022/02/22 11:53:19;;;;;;;;;28.50;28.50;;;;;9.28;88.08;100579.41;4949830;28;11517;-73
2022/02/22 11:56:23;;;;;;;;;29.25;29.25;;;;;9.44;88.37;100591.59;4952269;29;11541;-73
2022/02/22 11:59:21;;;;;;;;;34.25;30.75;;;;;9.42;88.24;100580.84;4959621;28;11505;-73
2022/02/22 12:02:44;;;;;;;;;31.75;30.25;;;;;9.43;88.74;100581.66;4967457;28;11654;-73
2022/02/22 12:05:43;;;;;;;;;34.25;33.50;;;;;9.53;88.34;100594.34;4938264;29;11571;-74
2022/02/22 12:08:41;;;;;;;;;35.25;33.50;;;;;9.53;89.12;100583.31;4944965;29;11545;-72
2022/02/22 12:11:38;;;;;;;;;36.75;36.25;;;;;9.47;89.32;100590.94;4950905;29;11526;-72
2022/02/22 12:14:36;;;;;;;;;38.00;36.75;;;;;9.40;90.79;100585.09;4947760;29;11550;-74
2022/02/22 12:17:33;;;;;;;;;39.00;36.25;;;;;9.51;90.28;100591.06;4937460;29;11537;-74
2022/02/22 12:20:15;;;;;;;;;34.75;32.75;;;;;9.44;90.38;100588.84;4948334;29;11544;-73
2022/02/22 12:23:19;;;;;;;;;41.75;37.75;;;;;9.42;90.11;100588.34;4945975;29;11539;-74
2022/02/22 12:26:20;;;;;;;;;38.00;36.50;;;;;9.44;91.18;100588.84;4935759;29;11522;-74
2022/02/22 12:29:19;;;;;;;;;30.50;30.50;;;;;9.39;90.34;100583.47;4931434;28;12456;-73
2022/02/22 12:32:14;;;;;;;;;38.00;35.50;;;;;9.06;92.32;100583.97;4935031;29;11650;-73
2022/02/22 12:35:07;;;;;;;;;34.50;30.50;;;;;9.39;90.67;100577.94;4934660;29;11555;-73
2022/02/22 12:38:13;;;;;;;;;37.75;36.50;;;;;9.39;91.06;100589.81;4934651;29;11701;-72
2022/02/22 12:41:13;;;;;;;;;32.75;30.75;;;;;9.50;91.41;100589.47;4950712;28;12262;-73
2022/02/22 12:44:14;;;;;;;;;35.50;33.75;;;;;9.86;90.62;100600.94;4938099;29;11563;-72
2022/02/22 12:47:10;;;;;;;;;29.75;29.50;;;;;10.09;88.66;100590.50;4941266;29;11559;-72
2022/02/22 12:49:38;;;;;;;;;25.75;25.75;;;;;9.45;89.41;100591.28;4921886;29;12283;-74
2022/02/22 12:52:34;;;;;;;;;27.25;27.25;;;;;9.39;89.56;100600.84;4944229;28;11346;-73
2022/02/22 12:55:30;;;;;;;;;31.50;31.50;;;;;9.43;89.98;100601.00;4974891;28;11702;-74
2022/02/22 12:58:37;;;;;;;;;29.75;29.75;;;;;9.32;90.11;100600.50;4941222;28;12178;-73
2022/02/22 13:01:38;;;;;;;;;30.75;29.00;;;;;9.21;91.49;100599.22;4937181;29;11332;-74
2022/02/22 13:04:39;;;;;;;;;32.25;31.75;;;;;9.18;91.58;100608.13;4954795;28;11526;-73
2022/02/22 13:07:34;;;;;;;;;32.00;32.00;;;;;9.30;90.87;100610.25;4943438;28;11547;-73
2022/02/22 13:10:40;;;;;;;;;46.50;41.25;;;;;9.21;91.66;100596.47;4955978;28;11539;-73